Time;durP1;ratioP1;P1;durP2;ratioP2;P2;SDS_P1;SDS_P2;PMS_P1;PMS_P2;Temp;Humidity;BMP_temperature;BMP_pressure;BME280_temperature;BME280_humidity;BME280_pressure;Samples;Min_cycle;Max_cycle;Signal;HPM_P1;HPM_P2
2022/03/03 00:00:26;;;;;;;18.77;7.35;;;;;;;1.67;83.87;99989.38;4935778;29;20090;-56
2022/03/03 00:03:11;;;;;;;14.23;6.25;;;;;;;1.67;83.92;99989.38;4951523;29;20109;-58
2022/03/03 00:05:56;;;;;;;18.88;6.18;;;;;;;1.63;84.29;99992.78;4951992;29;20199;-58
2022/03/03 00:08:40;;;;;;;18.08;6.80;;;;;;;1.64;84.33;99947.50;4949721;29;20063;-58
2022/03/03 00:11:25;;;;;;;19.20;6.72;;;;;;;1.55;83.52;99944.72;4936130;29;20046;-59
2022/03/03 00:14:09;;;;;;;15.07;5.93;;;;;;;1.89;83.28;99970.59;4951151;29;20090;-63
2022/03/03 00:16:54;;;;;;;17.27;6.63;;;;;;;1.56;83.12;99964.78;4951598;29;20042;-60
2022/03/03 00:19:38;;;;;;;13.60;6.17;;;;;;;1.28;84.55;99928.53;4932524;29;20058;-56
2022/03/03 00:22:22;;;;;;;13.13;5.45;;;;;;;1.42;84.94;99966.22;4923885;29;20357;-59
2022/03/03 00:25:07;;;;;;;19.48;6.78;;;;;;;1.66;85.28;99968.44;4951647;29;20057;-55
2022/03/03 00:27:52;;;;;;;34.38;8.80;;;;;;;1.92;85.86;99952.34;4951153;29;20468;-60
2022/03/03 00:30:36;;;;;;;17.08;6.78;;;;;;;1.99;84.39;99945.50;4936489;29;20074;-63
2022/03/03 00:33:21;;;;;;;18.67;5.93;;;;;;;1.91;83.39;99952.31;4947725;29;20575;-62
2022/03/03 00:36:05;;;;;;;14.60;6.22;;;;;;;1.54;83.40;99947.31;4934897;29;20062;-65
2022/03/03 00:38:50;;;;;;;18.48;6.60;;;;;;;1.02;86.12;99958.44;4949140;29;20447;-60
2022/03/03 00:41:34;;;;;;;29.45;7.70;;;;;;;0.97;88.22;99959.19;4954204;29;20050;-59
2022/03/03 00:44:19;;;;;;;20.77;6.43;;;;;;;0.89;90.05;99955.56;4936140;29;20261;-64
2022/03/03 00:47:03;;;;;;;20.13;7.75;;;;;;;0.75;90.79;99941.34;4949836;29;20061;-60
2022/03/03 00:49:48;;;;;;;21.02;8.05;;;;;;;0.63;92.43;99935.88;4936400;29;20396;-58
2022/03/03 00:52:32;;;;;;;21.80;8.70;;;;;;;0.17;94.11;99871.38;4934990;29;20050;-62
2022/03/03 00:55:16;;;;;;;24.98;9.23;;;;;;;0.12;96.53;99870.41;4947690;28;20069;-62
2022/03/03 00:58:01;;;;;;;23.45;9.20;;;;;;;0.73;98.27;99915.22;4931175;29;20050;-62
2022/03/03 01:00:45;;;;;;;26.02;9.52;;;;;;;1.10;97.75;99922.94;4949018;29;20121;-61
2022/03/03 01:03:30;;;;;;;32.28;9.50;;;;;;;1.37;96.42;99922.59;4948270;29;20078;-58
2022/03/03 01:06:14;;;;;;;23.50;9.05;;;;;;;1.38;94.55;99920.00;4935733;29;20149;-61
2022/03/03 01:08:59;;;;;;;30.42;9.45;;;;;;;1.16;93.48;99920.47;4935854;29;20217;-59
2022/03/03 01:11:43;;;;;;;23.85;9.05;;;;;;;0.62;94.74;99869.75;4935397;29;20094;-61
2022/03/03 01:14:28;;;;;;;28.73;9.88;;;;;;;1.04;95.28;99906.28;4949969;29;20053;-60
2022/03/03 01:17:13;;;;;;;28.52;8.77;;;;;;;1.15;95.36;99878.66;4948962;29;20046;-63
2022/03/03 01:19:58;;;;;;;27.73;9.95;;;;;;;1.45;94.19;99914.03;4935897;29;20143;-60
2022/03/03 01:22:42;;;;;;;25.25;10.05;;;;;;;1.06;92.17;99868.03;4934756;29;20134;-63
2022/03/03 01:25:27;;;;;;;25.25;9.82;;;;;;;0.80;92.55;99909.28;4951291;29;20050;-60
2022/03/03 01:28:11;;;;;;;27.70;10.10;;;;;;;0.88;94.50;99912.03;4935887;29;20050;-61
2022/03/03 01:30:56;;;;;;;27.20;9.68;;;;;;;1.06;95.74;99897.63;4923974;29;20050;-60
2022/03/03 01:33:40;;;;;;;31.40;10.50;;;;;;;1.07;95.25;99895.91;4936288;29;20176;-61
2022/03/03 01:36:25;;;;;;;24.37;8.73;;;;;;;1.38;96.93;99891.28;4935877;29;20388;-62
2022/03/03 01:39:10;;;;;;;26.45;9.95;;;;;;;1.49;95.08;99883.63;4950762;29;20042;-60
2022/03/03 01:41:54;;;;;;;30.10;10.32;;;;;;;1.45;92.42;99887.91;4934207;29;20167;-62
2022/03/03 01:44:42;;;;;;;28.38;10.30;;;;;;;1.20;92.20;99883.13;4936093;29;20379;-58
2022/03/03 01:47:27;;;;;;;25.38;10.13;;;;;;;1.05;92.85;99880.22;4935006;29;20065;-59
2022/03/03 01:50:12;;;;;;;38.08;11.13;;;;;;;0.72;93.95;99863.91;4950837;29;20058;-61
2022/03/03 01:52:56;;;;;;;25.75;10.18;;;;;;;0.83;94.89;99871.94;4950350;29;20498;-62
2022/03/03 01:55:41;;;;;;;31.52;9.02;;;;;;;0.72;94.34;99861.28;4921571;29;20047;-62
2022/03/03 01:58:26;;;;;;;25.77;8.95;;;;;;;0.93;94.53;99860.81;4909875;29;20450;-58
2022/03/03 02:01:15;;;;;;;21.60;9.20;;;;;;;0.62;94.15;99872.38;4919909;29;20456;-60
2022/03/03 02:03:59;;;;;;;24.63;9.15;;;;;;;0.70;95.95;99862.97;4948386;29;20130;-60
2022/03/03 02:06:44;;;;;;;26.15;9.88;;;;;;;0.77;97.09;99862.25;4932972;29;20458;-62
2022/03/03 02:09:29;;;;;;;29.73;10.90;;;;;;;0.74;97.55;99863.94;4933767;29;20042;-61
2022/03/03 02:12:14;;;;;;;26.42;9.82;;;;;;;0.48;98.71;99858.19;4948119;29;20062;-62
2022/03/03 02:14:59;;;;;;;28.63;11.60;;;;;;;0.69;99.71;99856.00;4932010;29;20042;-61
2022/03/03 02:17:43;;;;;;;24.17;9.32;;;;;;;0.97;99.29;99850.47;4951241;28;20042;-61
2022/03/03 02:20:30;;;;;;;26.73;8.60;;;;;;;0.71;97.88;99832.56;4947506;29;20102;-60
2022/03/03 02:23:15;;;;;;;21.65;7.72;;;;;;;0.34;97.70;99841.34;4922058;29;20058;-60
2022/03/03 02:26:00;;;;;;;;;;;;;;;0.35;98.00;99839.63;4947746;29;20050;-61
2022/03/03 02:28:50;;;;;;;17.90;7.85;;;;;;;0.10;99.05;99791.28;4935618;29;19917;-60
2022/03/03 02:31:35;;;;;;;22.60;8.10;;;;;;;0.44;99.20;99837.19;4922331;29;20507;-60
2022/03/03 02:34:20;;;;;;;24.48;9.13;;;;;;;0.40;98.77;99833.66;4947777;29;20043;-60
2022/03/03 02:37:05;;;;;;;26.42;8.25;;;;;;;0.22;98.19;99838.47;4935749;29;20089;-60
2022/03/03 02:39:49;;;;;;;;;;;;;;;0.19;97.42;99825.34;4950195;29;20118;-61
2022/03/03 02:42:34;;;;;;;19.50;8.43;;;;;;;-0.42;99.62;99785.75;4951481;29;19921;-61
2022/03/03 02:45:20;;;;;;;24.75;8.50;;;;;;;-0.03;100.00;99833.56;4950517;29;20241;-60
2022/03/03 02:48:04;;;;;;;23.88;8.50;;;;;;;-0.07;100.00;99827.38;4948972;29;20057;-63
2022/03/03 02:50:49;;;;;;;24.77;9.93;;;;;;;-0.28;100.00;99787.84;4935525;29;20101;-60
2022/03/03 02:53:34;;;;;;;24.15;8.85;;;;;;;0.11;100.00;99828.66;4920968;29;20050;-59
2022/03/03 02:56:19;;;;;;;21.65;8.30;;;;;;;-0.30;100.00;99784.31;4936382;29;20063;-60
2022/03/03 02:59:04;;;;;;;22.85;9.02;;;;;;;-0.03;100.00;99818.78;4951625;29;20579;-60
2022/03/03 03:01:48;;;;;;;19.38;8.57;;;;;;;-0.23;100.00;99814.00;4952669;29;20463;-60
2022/03/03 03:04:33;;;;;;;17.95;7.65;;;;;;;-0.42;100.00;99817.00;4950668;29;20057;-61
2022/03/03 03:07:17;;;;;;;24.20;8.20;;;;;;;-0.25;100.00;99813.06;4934896;29;20056;-61
2022/03/03 03:10:03;;;;;;;21.05;7.68;;;;;;;-0.48;100.00;99778.69;4935638;29;20062;-59
2022/03/03 03:12:47;;;;;;;21.88;7.88;;;;;;;-0.56;100.00;99801.06;4947563;29;20090;-59
2022/03/03 03:15:33;;;;;;;25.45;8.43;;;;;;;-0.59;100.00;99800.97;4950067;29;20042;-60
2022/03/03 03:18:19;;;;;;;25.50;7.97;;;;;;;-0.88;100.00;99757.75;4923295;29;20378;-59
2022/03/03 03:21:04;;;;;;;20.63;8.25;;;;;;;-0.69;100.00;99793.78;4925671;29;20050;-61
2022/03/03 03:23:48;;;;;;;18.50;7.80;;;;;;;-0.63;100.00;99788.72;4938904;29;20042;-60
2022/03/03 03:26:33;;;;;;;32.90;8.00;;;;;;;-0.64;100.00;99781.75;4952494;29;20493;-63
2022/03/03 03:29:18;;;;;;;32.97;9.02;;;;;;;-0.88;100.00;99764.66;4938864;29;20153;-62
2022/03/03 03:32:02;;;;;;;20.50;9.23;;;;;;;-0.79;100.00;99794.41;4937304;29;20511;-62
2022/03/03 03:34:47;;;;;;;;;;;;;;;-0.92;100.00;99788.84;4925624;29;20050;-60
2022/03/03 03:37:32;;;;;;;25.33;9.40;;;;;;;-1.11;100.00;99792.69;4952848;28;20655;-60
2022/03/03 03:40:17;;;;;;;30.23;9.25;;;;;;;-0.95;100.00;99784.44;4953094;29;20537;-60
2022/03/03 03:43:02;;;;;;;22.73;9.13;;;;;;;-1.01;100.00;99776.50;4953458;29;20045;-59
2022/03/03 03:45:47;;;;;;;27.67;9.82;;;;;;;-0.97;100.00;99775.72;4937947;29;20106;-63
2022/03/03 03:48:32;;;;;;;23.88;9.30;;;;;;;-1.24;100.00;99758.53;4925313;29;20057;-60
2022/03/03 03:51:16;;;;;;;21.15;9.27;;;;;;;-1.21;100.00;99769.91;4936789;29;20054;-60
2022/03/03 03:54:01;;;;;;;20.77;9.07;;;;;;;-1.29;100.00;99755.81;4953157;29;20050;-60
2022/03/03 03:56:45;;;;;;;24.25;9.90;;;;;;;-1.69;100.00;99693.22;4936130;29;20101;-61
2022/03/03 03:59:30;;;;;;;22.75;9.15;;;;;;;-1.68;100.00;99710.56;4950702;29;20086;-62
2022/03/03 04:02:14;;;;;;;28.63;9.40;;;;;;;-1.47;100.00;99760.50;4936343;29;20094;-60
2022/03/03 04:04:59;;;;;;;29.00;10.80;;;;;;;-1.51;100.00;99750.88;4951217;29;20057;-61
2022/03/03 04:07:43;;;;;;;28.63;10.23;;;;;;;-1.39;100.00;99760.72;4950694;29;20087;-61
2022/03/03 04:10:28;;;;;;;37.75;11.32;;;;;;;-1.33;100.00;99750.50;4948655;29;20085;-62
2022/03/03 04:13:12;;;;;;;30.20;10.57;;;;;;;-1.43;100.00;99748.47;4937028;29;20468;-64
2022/03/03 04:15:57;;;;;;;35.97;11.25;;;;;;;-1.27;100.00;99751.53;4923069;29;20062;-61
2022/03/03 04:18:41;;;;;;;42.15;11.35;;;;;;;-1.17;100.00;99752.66;4952387;29;20469;-61
2022/03/03 04:21:26;;;;;;;31.23;12.15;;;;;;;-1.04;100.00;99752.09;4952232;29;20058;-63
2022/03/03 04:24:11;;;;;;;40.13;12.63;;;;;;;-0.67;100.00;99742.63;4952148;29;20428;-63
2022/03/03 04:26:56;;;;;;;32.90;10.25;;;;;;;-0.50;100.00;99745.63;4952236;29;20050;-62
2022/03/03 04:29:40;;;;;;;28.77;10.75;;;;;;;-0.64;100.00;99710.56;4935141;29;20141;-63
2022/03/03 04:32:25;;;;;;;34.70;11.00;;;;;;;-0.43;100.00;99714.56;4937104;29;20078;-69
2022/03/03 04:35:10;;;;;;;30.88;9.48;;;;;;;-0.36;100.00;99742.50;4921788;29;20407;-60
2022/03/03 04:37:55;;;;;;;31.92;9.98;;;;;;;-0.65;100.00;99760.91;4938212;29;20440;-66
2022/03/03 04:40:39;;;;;;;29.88;9.63;;;;;;;-0.81;100.00;99750.97;4924170;29;20772;-61
2022/03/03 04:43:24;;;;;;;28.48;10.73;;;;;;;-0.84;100.00;99766.50;4937565;29;20049;-64
2022/03/03 04:46:08;;;;;;;27.10;9.30;;;;;;;-0.81;100.00;99764.88;4937391;29;20396;-64
2022/03/03 04:48:59;;;;;;;31.73;9.95;;;;;;;-0.76;100.00;99767.56;4950560;29;20192;-65
2022/03/03 04:51:44;;;;;;;25.40;9.82;;;;;;;-0.98;100.00;99708.91;4951654;29;20050;-60
2022/03/03 04:54:28;;;;;;;26.88;9.48;;;;;;;-0.81;100.00;99720.63;4949928;29;20101;-61
2022/03/03 04:57:13;;;;;;;51.35;11.90;;;;;;;-0.61;100.00;99714.16;4951279;29;20042;-63
2022/03/03 04:59:58;;;;;;;19.42;8.48;;;;;;;-0.31;100.00;99764.31;4936283;29;20705;-67
2022/03/03 05:02:42;;;;;;;24.25;8.30;;;;;;;-0.54;100.00;99754.22;4936215;29;20123;-60
2022/03/03 05:05:27;;;;;;;34.55;9.77;;;;;;;-0.42;100.00;99768.41;4950995;29;20046;-61
2022/03/03 05:08:11;;;;;;;26.08;8.80;;;;;;;-0.34;100.00;99751.25;4949068;29;20169;-64
2022/03/03 05:10:55;;;;;;;15.40;7.05;;;;;;;-0.77;100.00;99745.88;4936263;29;20054;-60
2022/03/03 05:13:40;;;;;;;19.15;7.90;;;;;;;-0.90;100.00;99746.41;4948810;29;20042;-61
2022/03/03 05:16:24;;;;;;;23.83;8.00;;;;;;;-0.96;100.00;99751.47;4936397;29;20506;-59
2022/03/03 05:19:09;;;;;;;22.40;8.35;;;;;;;-0.94;100.00;99744.56;4936233;29;20730;-60
2022/03/03 05:21:54;;;;;;;20.85;8.60;;;;;;;-0.90;100.00;99743.78;4937027;29;20094;-61
2022/03/03 05:24:39;;;;;;;38.47;8.80;;;;;;;-0.59;100.00;99735.88;4936464;29;20037;-60
2022/03/03 05:27:23;;;;;;;22.95;8.13;;;;;;;-0.29;100.00;99754.81;4949787;29;20411;-61
2022/03/03 05:30:09;;;;;;;29.88;9.55;;;;;;;-0.52;100.00;99719.56;4951032;29;20522;-61
2022/03/03 05:32:53;;;;;;;29.75;9.88;;;;;;;-0.46;100.00;99724.94;4948357;29;20050;-61
2022/03/03 05:35:40;;;;;;;59.33;12.13;;;;;;;-0.23;100.00;99738.44;4922732;29;20057;-63
2022/03/03 05:38:28;;;;;;;51.63;11.60;;;;;;;0.21;100.00;99737.66;4950537;29;20713;-63
2022/03/03 05:41:13;;;;;;;44.60;10.88;;;;;;;0.56;100.00;99736.63;4935941;28;20061;-61
2022/03/03 05:43:58;;;;;;;36.10;13.52;;;;;;;0.52;100.00;99745.22;4936089;29;20134;-61
2022/03/03 05:46:42;;;;;;;32.47;10.95;;;;;;;0.02;100.00;99725.09;4908206;29;20137;-65
2022/03/03 05:49:28;;;;;;;29.58;10.00;;;;;;;-0.39;100.00;99710.31;4936709;29;20089;-61
2022/03/03 05:52:13;;;;;;;25.02;9.27;;;;;;;-0.55;100.00;99726.44;4950363;29;20045;-62
2022/03/03 05:54:58;;;;;;;25.58;10.23;;;;;;;-0.42;100.00;99731.97;4936554;29;20550;-62
2022/03/03 05:57:49;;;;;;;25.88;10.63;;;;;;;0.03;100.00;99736.41;4923269;29;20047;-62
2022/03/03 06:00:34;;;;;;;30.00;10.80;;;;;;;-0.07;100.00;99736.19;4949186;29;20058;-64
2022/03/03 06:03:20;;;;;;;29.98;12.23;;;;;;;0.05;100.00;99741.66;4935815;29;20383;-61
2022/03/03 06:06:31;;;;;;;30.70;11.13;;;;;;;-0.02;100.00;99731.97;4948797;29;20499;-63
2022/03/03 06:09:22;;;;;;;36.63;12.43;;;;;;;0.13;100.00;99697.53;4948687;29;20069;-61
2022/03/03 06:12:14;;;;;;;29.13;11.90;;;;;;;0.60;100.00;99733.22;4936054;29;20097;-61
2022/03/03 06:15:05;;;;;;;37.75;12.07;;;;;;;0.68;100.00;99734.22;4922550;29;20042;-61
2022/03/03 06:17:50;;;;;;;29.92;12.65;;;;;;;0.76;99.82;99731.75;4948485;29;20046;-62
2022/03/03 06:20:37;;;;;;;34.88;11.35;;;;;;;0.90;99.05;99725.91;4950818;29;20054;-61
2022/03/03 06:23:22;;;;;;;28.23;11.57;;;;;;;0.61;97.49;99721.03;4922879;29;20384;-60
2022/03/03 06:26:10;;;;;;;30.65;12.07;;;;;;;0.64;99.05;99721.09;4935967;29;20252;-62
2022/03/03 06:28:54;;;;;;;37.20;10.23;;;;;;;0.33;99.08;99708.31;4935851;29;20536;-60
2022/03/03 06:31:40;;;;;;;32.38;11.23;;;;;;;0.26;100.00;99716.88;4948107;29;20046;-64
2022/03/03 06:34:25;;;;;;;34.38;11.40;;;;;;;0.33;100.00;99710.94;4950051;29;20138;-61
2022/03/03 06:37:10;;;;;;;31.20;11.25;;;;;;;0.51;100.00;99716.50;4949630;29;20054;-60
2022/03/03 06:39:54;;;;;;;28.02;10.82;;;;;;;0.62;100.00;99709.75;4950121;29;20392;-61
2022/03/03 06:42:39;;;;;;;29.52;10.20;;;;;;;0.44;99.80;99705.09;4921452;29;20058;-56
2022/03/03 06:45:25;;;;;;;28.45;11.45;;;;;;;0.49;100.00;99697.34;4935240;29;20094;-64
2022/03/03 06:48:09;;;;;;;35.38;10.50;;;;;;;0.38;100.00;99707.56;4948867;29;20098;-63
2022/03/03 06:50:55;;;;;;;35.20;11.20;;;;;;;0.51;100.00;99699.13;4948279;29;20528;-60
2022/03/03 06:53:43;;;;;;;33.80;10.50;;;;;;;0.36;100.00;99701.47;4936575;29;20046;-61
2022/03/03 06:56:30;;;;;;;34.53;10.73;;;;;;;0.52;100.00;99700.00;4912414;29;20153;-64
2022/03/03 06:59:17;;;;;;;23.88;9.73;;;;;;;0.64;100.00;99700.22;4953974;29;20062;-61
2022/03/03 07:02:02;;;;;;;37.30;9.93;;;;;;;0.67;100.00;99693.31;4939979;29;20068;-63
2022/03/03 07:04:49;;;;;;;24.55;9.95;;;;;;;0.70;100.00;99685.56;4951762;29;20574;-60
2022/03/03 07:07:35;;;;;;;27.98;9.52;;;;;;;0.77;100.00;99677.00;4939211;29;20050;-58
2022/03/03 07:10:23;;;;;;;19.55;9.82;;;;;;;0.69;100.00;99675.09;4938537;29;20467;-60
2022/03/03 07:13:08;;;;;;;21.90;9.68;;;;;;;0.74;100.00;99666.50;4953590;29;20177;-61
2022/03/03 07:16:11;;;;;;;20.92;8.15;;;;;;;0.72;100.00;99675.16;4939382;29;20041;-60
2022/03/03 07:19:00;;;;;;;22.52;9.10;;;;;;;0.77;100.00;99663.06;4939043;29;20142;-61
2022/03/03 07:21:54;;;;;;;21.52;9.25;;;;;;;0.67;100.00;99582.91;4911470;29;20058;-64
2022/03/03 07:24:58;;;;;;;23.90;9.30;;;;;;;1.34;100.00;99667.44;4938926;29;20050;-59
2022/03/03 07:27:45;;;;;;;36.03;10.73;;;;;;;1.57;98.51;99665.16;4925100;29;20050;-61
2022/03/03 07:30:30;;;;;;;33.95;10.30;;;;;;;1.77;97.07;99634.94;4951463;29;20046;-63
2022/03/03 07:33:24;;;;;;;41.88;10.85;;;;;;;2.38;94.87;99672.28;4925463;29;20053;-62
2022/03/03 07:36:12;;;;;;;26.23;10.15;;;;;;;2.69;92.90;99670.88;4938814;29;20232;-62
2022/03/03 07:39:05;;;;;;;28.20;9.88;;;;;;;2.92;90.44;99671.94;4923206;29;20070;-69
2022/03/03 07:41:49;;;;;;;26.33;10.30;;;;;;;2.71;89.00;99666.50;4953088;29;20392;-61
2022/03/03 07:44:34;;;;;;;31.27;10.88;;;;;;;2.32;89.90;99671.34;4953505;29;20102;-60
2022/03/03 07:47:21;;;;;;;22.00;10.07;;;;;;;2.39;91.52;99660.97;4952754;29;20050;-61
2022/03/03 07:50:07;;;;;;;24.60;9.60;;;;;;;2.48;91.13;99660.19;4953252;29;20038;-64
2022/03/03 07:52:53;;;;;;;24.95;9.07;;;;;;;2.38;90.56;99624.34;4936179;29;20042;-62
2022/03/03 07:55:43;;;;;;;25.35;9.30;;;;;;;2.75;89.96;99661.34;4938695;29;20050;-61
2022/03/03 07:58:31;;;;;;;26.90;8.77;;;;;;;2.85;88.49;99652.69;4938391;29;20046;-61
2022/03/03 08:01:17;;;;;;;19.08;7.85;;;;;;;2.99;87.84;99656.31;4938159;29;20065;-60
2022/03/03 08:04:02;;;;;;;20.55;7.40;;;;;;;3.11;86.68;99638.06;4937973;28;20094;-63
2022/03/03 08:06:48;;;;;;;26.38;9.52;;;;;;;3.48;86.36;99647.91;4923071;29;20062;-61
2022/03/03 08:09:34;;;;;;;21.10;7.35;;;;;;;3.46;84.34;99646.16;4938050;29;20189;-62
2022/03/03 08:12:21;;;;;;;17.90;8.95;;;;;;;2.96;84.72;99603.91;4923843;29;20042;-60
2022/03/03 08:15:07;;;;;;;18.60;8.07;;;;;;;3.13;85.20;99643.31;4952583;29;20089;-63
2022/03/03 08:17:53;;;;;;;17.60;7.95;;;;;;;4.21;83.15;99638.66;4938052;29;20093;-62
2022/03/03 08:20:39;;;;;;;26.75;8.90;;;;;;;6.49;71.43;99606.72;4951030;29;20475;-65
2022/03/03 08:23:26;;;;;;;22.30;8.95;;;;;;;8.67;60.35;99636.13;4952513;29;20078;-61
2022/03/03 08:26:12;;;;;;;26.70;9.35;;;;;;;9.63;51.50;99631.84;4936088;29;20043;-62
2022/03/03 08:28:58;;;;;;;22.75;8.75;;;;;;;11.22;45.54;99614.22;4938844;29;20094;-62
2022/03/03 08:31:48;;;;;;;23.80;8.98;;;;;;;11.66;42.90;99636.09;4924176;29;20046;-61
2022/03/03 08:34:36;;;;;;;22.60;9.50;;;;;;;12.83;37.78;99629.13;4949468;29;20502;-63
2022/03/03 08:37:35;;;;;;;23.60;10.02;;;;;;;14.83;32.36;99636.19;4952107;29;20050;-60
2022/03/03 08:40:21;;;;;;;22.75;8.70;;;;;;;15.47;30.22;99638.03;4937795;29;20050;-61
2022/03/03 08:43:06;;;;;;;18.30;10.18;;;;;;;15.57;30.04;99641.19;4922081;29;20065;-65
2022/03/03 08:45:51;;;;;;;29.58;10.10;;;;;;;17.43;25.78;99641.47;4909876;29;20046;-62
2022/03/03 08:48:36;;;;;;;;;;;;;;;16.68;30.83;99650.47;4934862;29;20447;-61
2022/03/03 08:51:21;;;;;;;37.13;10.43;;;;;;;17.31;26.06;99635.81;4950191;29;19936;-61
2022/03/03 08:54:06;;;;;;;15.35;8.90;;;;;;;17.28;25.78;99644.88;4950073;29;20182;-61
2022/03/03 08:56:51;;;;;;;25.08;10.82;;;;;;;18.22;23.70;99648.97;4936566;29;20077;-62
2022/03/03 08:59:36;;;;;;;18.27;9.52;;;;;;;16.76;26.23;99639.38;4936149;29;20046;-61
2022/03/03 09:02:20;;;;;;;21.45;9.30;;;;;;;17.34;25.71;99639.22;4929835;29;20085;-65
2022/03/03 09:05:05;;;;;;;14.18;7.30;;;;;;;17.12;24.88;99633.16;4921389;29;20082;-62
2022/03/03 09:07:50;;;;;;;17.50;7.60;;;;;;;17.40;24.80;99636.25;4947646;29;20129;-62
2022/03/03 09:10:35;;;;;;;21.02;9.52;;;;;;;17.86;24.15;99599.91;4943045;29;20066;-64
2022/03/03 09:13:19;;;;;;;22.00;8.88;;;;;;;16.52;24.80;99633.38;4950965;29;20320;-58
2022/03/03 09:16:04;;;;;;;20.80;9.07;;;;;;;16.91;25.81;99618.13;4936899;29;20090;-63
2022/03/03 09:18:49;;;;;;;21.88;8.15;;;;;;;16.34;25.08;99627.97;4937542;29;20074;-56
2022/03/03 09:21:34;;;;;;;29.45;10.23;;;;;;;18.25;24.40;99632.72;4935539;29;20046;-62
2022/03/03 09:24:19;;;;;;;16.02;7.75;;;;;;;18.39;23.06;99626.66;4937579;29;20054;-58
2022/03/03 09:27:04;;;;;;;19.50;6.88;;;;;;;16.64;23.79;99610.50;4949385;29;20057;-58
2022/03/03 09:29:49;;;;;;;21.27;9.68;;;;;;;16.13;24.94;99594.13;4937091;29;20121;-57
2022/03/03 09:32:34;;;;;;;23.10;10.95;;;;;;;16.52;25.63;99611.09;4951542;29;20094;-57
2022/03/03 09:35:18;;;;;;;28.40;11.18;;;;;;;17.13;24.43;99610.78;4911961;29;20050;-55
2022/03/03 09:38:03;;;;;;;;;;;;;;;18.11;26.50;99620.97;4949395;29;20102;-57
2022/03/03 09:40:48;;;;;;;28.75;11.23;;;;;;;17.79;23.32;99622.63;4948896;28;20009;-63
2022/03/03 09:43:33;;;;;;;25.92;10.23;;;;;;;19.16;22.07;99607.94;4922171;29;20105;-60
2022/03/03 09:46:27;;;;;;;20.77;9.68;;;;;;;20.37;20.68;99618.53;4940925;29;20046;-60
2022/03/03 09:49:17;;;;;;;28.63;9.88;;;;;;;20.80;19.46;99622.09;4926875;29;20086;-63
2022/03/03 09:52:12;;;;;;;20.75;9.90;;;;;;;19.99;20.42;99617.31;4929417;29;20551;-59
2022/03/03 09:54:57;;;;;;;26.33;10.37;;;;;;;21.67;19.13;99624.41;4939953;29;20046;-58
2022/03/03 09:57:43;;;;;;;22.85;10.82;;;;;;;22.24;18.16;99622.28;4942902;29;20047;-58
2022/03/03 10:00:32;;;;;;;25.05;10.43;;;;;;;22.47;17.53;99618.88;4949588;29;20041;-57
2022/03/03 10:03:19;;;;;;;22.50;9.38;;;;;;;19.42;19.84;99614.53;4938260;29;20403;-60
2022/03/03 10:06:04;;;;;;;26.23;9.15;;;;;;;19.81;20.22;99618.41;4943260;29;20082;-54
2022/03/03 10:08:53;;;;;;;27.35;9.60;;;;;;;20.86;18.93;99613.63;4927896;29;20066;-54
2022/03/03 10:12:05;;;;;;;29.35;8.65;;;;;;;19.88;20.79;99609.00;4935396;29;20148;-57
2022/03/03 10:14:50;;;;;;;21.05;10.25;;;;;;;20.21;19.66;99598.91;4922246;29;20046;-57
2022/03/03 10:17:36;;;;;;;21.40;9.00;;;;;;;20.15;19.04;99574.19;4936303;29;20504;-55
2022/03/03 10:20:20;;;;;;;22.77;9.88;;;;;;;22.09;17.81;99567.50;4919981;29;20038;-64
2022/03/03 10:23:09;;;;;;;18.48;9.00;;;;;;;23.66;17.06;99598.22;4935108;29;20091;-59
2022/03/03 10:25:56;;;;;;;18.52;9.13;;;;;;;23.63;16.34;99590.34;4933370;29;20041;-58
2022/03/03 10:28:48;;;;;;;16.15;9.23;;;;;;;23.23;16.70;99598.88;4949447;29;20400;-58
2022/03/03 10:31:45;;;;;;;18.23;8.63;;;;;;;23.29;16.61;99601.97;4949054;29;20046;-58
2022/03/03 10:34:32;;;;;;;17.95;9.52;;;;;;;23.69;16.38;99530.31;4947552;29;20085;-58
2022/03/03 10:37:22;;;;;;;19.65;9.65;;;;;;;25.42;15.13;99594.91;4921902;29;20550;-58
2022/03/03 10:40:11;;;;;;;26.95;9.98;;;;;;;25.03;14.82;99590.88;4930304;29;20114;-58
2022/03/03 10:42:56;;;;;;;21.55;9.40;;;;;;;24.92;15.29;99590.88;4947830;29;20082;-56
2022/03/03 10:45:57;;;;;;;;;;;;;;;24.98;16.65;99584.97;4949780;29;20050;-61
2022/03/03 10:48:41;;;;;;;31.05;10.18;;;;;;;23.92;15.76;99588.13;4935637;29;19925;-60
2022/03/03 10:51:26;;;;;;;17.75;8.85;;;;;;;24.90;15.47;99584.75;4946891;29;20042;-62
2022/03/03 10:54:10;;;;;;;;;;;;;;;25.05;15.02;99582.63;4934495;29;20050;-62
2022/03/03 10:56:55;;;;;;;15.95;8.35;;;;;;;23.01;17.32;99572.50;4933027;29;20377;-59
2022/03/03 10:59:42;;;;;;;13.85;8.20;;;;;;;22.63;17.26;99539.31;4932847;29;20069;-67
2022/03/03 11:02:28;;;;;;;19.60;9.35;;;;;;;24.16;16.44;99561.84;4934563;29;20047;-61
2022/03/03 11:05:15;;;;;;;21.05;8.55;;;;;;;22.25;17.66;99551.94;4933691;29;20045;-64
2022/03/03 11:07:59;;;;;;;16.30;7.97;;;;;;;22.83;18.00;99559.47;4948985;29;20046;-62
2022/03/03 11:10:44;;;;;;;17.67;8.73;;;;;;;24.08;17.09;99561.59;4947191;29;20408;-63
2022/03/03 11:13:29;;;;;;;;;;;;;;;23.47;18.14;99562.72;4949407;29;20046;-61
2022/03/03 11:16:20;;;;;;;14.63;8.32;;;;;;;23.15;17.79;99564.25;4927254;29;20081;-63
2022/03/03 11:19:04;;;;;;;15.00;8.85;;;;;;;21.72;18.40;99550.28;4947697;29;20082;-62
2022/03/03 11:21:49;;;;;;;12.15;8.75;;;;;;;21.21;19.52;99548.38;4934572;29;20510;-62
2022/03/03 11:24:38;;;;;;;;;;;;;;;22.70;18.90;99551.38;4932856;29;20538;-63
2022/03/03 11:27:32;;;;;;;14.05;8.65;;;;;;;22.12;19.35;99544.81;4949311;29;19956;-61
2022/03/03 11:30:36;;;;;;;15.40;8.30;;;;;;;21.24;20.51;99545.47;4921130;29;20098;-65
2022/03/03 11:33:27;;;;;;;14.10;8.07;;;;;;;21.91;19.59;99545.34;4934366;29;20466;-60
2022/03/03 11:36:20;;;;;;;16.42;8.57;;;;;;;22.28;19.43;99537.34;4935197;29;20450;-65
2022/03/03 11:39:07;;;;;;;14.98;8.68;;;;;;;21.47;19.82;99528.59;4952089;28;20042;-59
2022/03/03 11:41:52;;;;;;;14.20;8.40;;;;;;;20.61;20.69;99517.31;4923190;29;20583;-57
2022/03/03 11:44:36;;;;;;;;;;;;;;;20.50;22.00;99522.56;4953420;29;20081;-60
2022/03/03 11:47:23;;;;;;;13.53;7.93;;;;;;;20.30;21.33;99531.00;4938174;29;19917;-59
2022/03/03 11:50:16;;;;;;;14.55;8.13;;;;;;;20.09;21.32;99488.41;4951185;29;20063;-64
2022/03/03 11:53:08;;;;;;;17.17;8.50;;;;;;;19.63;22.07;99527.16;4952782;29;20047;-59
2022/03/03 11:56:03;;;;;;;15.70;8.45;;;;;;;18.39;23.16;99521.94;4938391;29;20046;-57
2022/03/03 11:59:12;;;;;;;15.17;8.67;;;;;;;18.35;24.22;99531.13;4936272;29;20387;-58
2022/03/03 12:01:57;;;;;;;17.65;9.35;;;;;;;18.34;24.37;99489.06;4935383;29;20183;-65
2022/03/03 12:04:42;;;;;;;18.50;8.75;;;;;;;19.14;23.44;99509.50;4924738;29;20066;-60
2022/03/03 12:07:29;;;;;;;13.70;8.30;;;;;;;18.68;22.98;99515.78;4947773;29;20042;-64
2022/03/03 12:10:20;;;;;;;15.13;8.57;;;;;;;17.80;25.06;99509.91;4924508;29;20512;-62
2022/03/03 12:13:24;;;;;;;15.05;8.55;;;;;;;17.93;24.77;99516.34;4924213;29;20042;-61
2022/03/03 12:16:24;;;;;;;18.35;7.97;;;;;;;16.93;26.88;99509.09;4935674;29;20078;-63
2022/03/03 12:19:12;;;;;;;12.70;8.25;;;;;;;16.78;26.88;99514.34;4946723;29;20097;-63
2022/03/03 12:22:03;;;;;;;14.52;8.02;;;;;;;16.14;27.42;99495.09;4935486;29;20065;-62
2022/03/03 12:24:48;;;;;;;14.50;8.52;;;;;;;16.73;27.53;99501.16;4937533;29;20058;-63
2022/03/03 12:27:32;;;;;;;14.40;7.90;;;;;;;16.78;26.31;99498.28;4937020;29;20250;-65
2022/03/03 12:30:19;;;;;;;12.82;7.28;;;;;;;17.25;26.35;99502.97;4936255;29;20134;-63
2022/03/03 12:33:05;;;;;;;15.02;8.25;;;;;;;16.77;26.70;99497.41;4936048;29;20090;-63
2022/03/03 12:35:51;;;;;;;14.25;7.80;;;;;;;16.77;26.97;99494.72;4921785;29;20399;-62
2022/03/03 12:38:37;;;;;;;14.23;8.50;;;;;;;15.17;28.60;99496.84;4936103;29;20061;-64
2022/03/03 12:41:29;;;;;;;15.07;7.72;;;;;;;14.76;29.57;99492.38;4936618;29;20050;-63
2022/03/03 12:44:17;;;;;;;17.13;7.72;;;;;;;14.66;30.04;99491.88;4942233;29;20149;-64
2022/03/03 12:47:03;;;;;;;13.73;8.32;;;;;;;14.46;30.55;99491.81;4948680;29;20468;-64
2022/03/03 12:49:49;;;;;;;17.33;8.13;;;;;;;14.56;31.75;99495.00;4942127;29;20098;-62
2022/03/03 12:52:35;;;;;;;13.32;7.63;;;;;;;14.39;31.60;99492.13;4942654;29;20050;-64
2022/03/03 12:55:25;;;;;;;13.52;7.50;;;;;;;14.39;31.89;99494.81;4949409;29;20077;-71